createdAt,value
2022-09-16T00:00:13.561Z,98270.63
2022-09-16T00:02:43.075Z,98242.06
2022-09-16T00:05:13.708Z,98255.84
2022-09-16T00:07:43.249Z,98253.34
2022-09-16T00:10:13.323Z,98233.91
2022-09-16T00:12:43.709Z,98257.84
2022-09-16T00:15:13.508Z,98254.19
2022-09-16T00:17:42.020Z,98238.22
2022-09-16T00:20:12.168Z,98265.47
2022-09-16T00:22:44.879Z,98223.25
2022-09-16T00:25:14.205Z,98265.13
2022-09-16T00:27:49.510Z,98287.91
2022-09-16T00:30:21.083Z,98260.66
2022-09-16T00:32:49.871Z,98273.44
2022-09-16T00:35:21.859Z,98261.31
2022-09-16T00:37:52.164Z,98236.41
2022-09-16T00:40:23.090Z,98221.78
2022-09-16T00:42:56.179Z,98223.78
2022-09-16T00:45:31.461Z,98217.13
2022-09-16T00:48:03.222Z,98202.53
2022-09-16T00:50:38.476Z,98163.00
2022-09-16T00:53:10.276Z,98184.56
2022-09-16T00:55:40.498Z,98162.66
2022-09-16T00:58:17.816Z,98184.56
2022-09-16T01:00:49.872Z,98193.19
2022-09-16T01:03:21.490Z,98206.19
2022-09-16T01:05:51.155Z,98194.88
2022-09-16T01:08:21.136Z,98197.84
2022-09-16T01:10:52.195Z,98208.84
2022-09-16T01:13:24.602Z,98230.94
2022-09-16T01:16:00.117Z,98235.75
2022-09-16T01:18:37.324Z,98219.47
2022-09-16T01:21:24.749Z,98222.63
2022-09-16T01:24:08.992Z,98236.41
2022-09-16T01:27:15.547Z,98243.38
2022-09-16T01:30:15.940Z,98247.03
2022-09-16T01:32:58.883Z,98251.34
2022-09-16T01:35:36.603Z,98237.41
2022-09-16T01:38:18.957Z,98231.44
2022-09-16T01:40:56.487Z,98228.09
2022-09-16T01:43:39.685Z,98261.81
2022-09-16T01:46:20.708Z,98240.06
2022-09-16T01:49:00.780Z,98243.72
2022-09-16T01:51:38.527Z,98278.25
2022-09-16T01:54:13.455Z,98296.69
2022-09-16T01:56:47.452Z,98285.25
2022-09-16T01:59:24.065Z,98272.94
2022-09-16T02:01:56.472Z,98293.88
2022-09-16T02:04:32.879Z,98288.88
2022-09-16T02:07:05.136Z,98305.84
2022-09-16T02:09:37.439Z,98316.47
2022-09-16T02:12:14.363Z,98295.03
2022-09-16T02:14:47.894Z,98308.50
2022-09-16T02:17:20.784Z,98319.13
2022-09-16T02:19:57.854Z,98328.44
2022-09-16T02:22:32.664Z,98326.78
2022-09-16T02:25:03.770Z,98315.97
2022-09-16T02:27:33.833Z,98326.78
2022-09-16T02:30:07.353Z,98329.25
2022-09-16T02:32:41.157Z,98333.75
2022-09-16T02:35:16.639Z,98330.44
2022-09-16T02:37:51.519Z,98316.47
2022-09-16T02:40:29.299Z,98349.38
2022-09-16T02:42:59.511Z,98349.22
2022-09-16T02:45:37.342Z,98334.56
2022-09-16T02:48:17.649Z,98334.06
2022-09-16T02:50:53.288Z,98335.41
2022-09-16T02:53:31.869Z,98351.03
2022-09-16T02:56:06.096Z,98344.88
2022-09-16T02:58:35.256Z,98344.38
2022-09-16T03:01:05.625Z,98332.91
2022-09-16T03:03:37.445Z,98327.75
2022-09-16T03:06:17.563Z,98335.06
2022-09-16T03:08:49.086Z,98365.03
2022-09-16T03:11:38.080Z,98356.34
2022-09-16T03:14:25.684Z,98359.00
2022-09-16T03:17:04.969Z,98363.34
2022-09-16T03:19:40.673Z,98355.50
2022-09-16T03:22:20.209Z,98348.03
2022-09-16T03:24:59.933Z,98363.34
2022-09-16T03:27:33.442Z,98355.50
2022-09-16T03:30:06.342Z,98366.69
2022-09-16T03:32:38.869Z,98374.00
2022-09-16T03:35:12.431Z,98385.97
2022-09-16T03:37:46.317Z,98394.59
2022-09-16T03:40:19.847Z,98397.41
2022-09-16T03:42:48.238Z,98388.63
2022-09-16T03:45:19.659Z,98379.31
2022-09-16T03:47:52.120Z,98380.63
2022-09-16T03:50:23.418Z,98375.81
2022-09-16T03:52:55.293Z,98393.78
2022-09-16T03:55:23.962Z,98377.31
2022-09-16T03:57:54.265Z,98402.41
2022-09-16T04:00:24.251Z,98387.94
2022-09-16T04:02:53.512Z,98383.94
2022-09-16T04:05:22.932Z,98408.56
2022-09-16T04:07:52.304Z,98361.31
2022-09-16T04:10:22.938Z,98371.34
2022-09-16T04:12:58.733Z,98374.00
2022-09-16T04:15:27.862Z,98384.28
2022-09-16T04:17:57.250Z,98379.31
2022-09-16T04:20:27.938Z,98370.63
2022-09-16T04:22:57.546Z,98376.78
2022-09-16T04:25:29.125Z,98379.59
2022-09-16T04:27:57.839Z,98376.78
2022-09-16T04:30:27.400Z,98369.47
2022-09-16T04:32:55.312Z,98401.75
2022-09-16T04:35:23.578Z,98398.75
2022-09-16T04:37:58.621Z,98387.94
2022-09-16T04:40:29.423Z,98396.59
2022-09-16T04:43:01.568Z,98404.91
2022-09-16T04:45:31.971Z,98400.75
2022-09-16T04:48:00.067Z,98392.09
2022-09-16T04:50:28.880Z,98414.22
2022-09-16T04:52:59.694Z,98436.47
2022-09-16T04:55:31.590Z,98447.94
2022-09-16T04:58:01.968Z,98437.16
2022-09-16T05:00:31.673Z,98447.63
2022-09-16T05:03:01.075Z,98448.47
2022-09-16T05:05:32.606Z,98442.47
2022-09-16T05:08:01.796Z,98439.97
2022-09-16T05:10:32.151Z,98439.16
2022-09-16T05:13:01.959Z,98470.41
2022-09-16T05:15:31.383Z,98476.38
2022-09-16T05:18:01.142Z,98464.09
2022-09-16T05:20:30.906Z,98496.00
2022-09-16T05:23:00.184Z,98493.50
2022-09-16T05:25:28.132Z,98499.00
2022-09-16T05:28:01.437Z,98518.66
2022-09-16T05:30:29.421Z,98514.34
2022-09-16T05:32:58.805Z,98532.94
2022-09-16T05:35:26.639Z,98555.59
2022-09-16T05:37:55.309Z,98573.22
2022-09-16T05:40:24.143Z,98569.88
2022-09-16T05:42:53.331Z,98621.47
2022-09-16T05:45:30.031Z,98649.47
2022-09-16T05:48:00.812Z,98648.31
2022-09-16T05:50:30.310Z,98663.13
2022-09-16T05:53:00.077Z,98657.13
2022-09-16T05:55:29.307Z,98649.47
2022-09-16T05:58:00.148Z,98637.97
2022-09-16T06:00:29.777Z,98700.56
2022-09-16T06:02:57.926Z,98683.25
2022-09-16T06:05:26.100Z,98700.56
2022-09-16T06:07:57.607Z,98696.91
2022-09-16T06:10:26.614Z,98705.56
2022-09-16T06:12:54.415Z,98704.72
2022-09-16T06:15:22.423Z,98731.69
2022-09-16T06:17:54.162Z,98740.00
2022-09-16T06:20:24.322Z,98758.66
2022-09-16T06:22:54.944Z,98765.38
2022-09-16T06:25:24.662Z,98785.34
2022-09-16T06:27:53.511Z,98804.50
2022-09-16T06:30:21.812Z,98811.34
2022-09-16T06:32:51.556Z,98833.31
2022-09-16T06:35:21.056Z,98859.84
2022-09-16T06:37:51.473Z,98888.38
2022-09-16T06:40:19.608Z,98895.72
2022-09-16T06:42:48.525Z,98923.06
2022-09-16T06:45:18.221Z,98967.56
2022-09-16T06:47:47.222Z,99014.81
2022-09-16T06:50:18.494Z,99073.50
2022-09-16T06:52:51.603Z,99107.50
2022-09-16T06:55:21.006Z,99147.78
2022-09-16T06:57:49.973Z,99181.69
2022-09-16T07:00:24.927Z,99192.66
2022-09-16T07:02:54.376Z,99217.22
2022-09-16T07:05:23.306Z,99258.16
2022-09-16T07:07:56.800Z,99262.50
2022-09-16T07:10:25.551Z,99292.91
2022-09-16T07:12:55.082Z,99318.97
2022-09-16T07:15:24.559Z,99339.69
2022-09-16T07:17:55.318Z,99400.88
2022-09-16T07:20:25.088Z,99386.28
2022-09-16T07:22:57.089Z,99418.94
2022-09-16T07:25:27.025Z,99451.91
2022-09-16T07:27:55.538Z,99467.59
2022-09-16T07:30:23.691Z,99498.19
2022-09-16T07:32:53.449Z,99535.53
2022-09-16T07:35:22.863Z,99558.09
2022-09-16T07:37:50.815Z,99602.59
2022-09-16T07:40:22.076Z,99599.22
2022-09-16T07:42:51.673Z,99612.81
2022-09-16T07:45:19.534Z,99678.44
2022-09-16T07:47:50.338Z,99667.19
2022-09-16T07:50:18.637Z,99671.41
2022-09-16T07:52:46.583Z,99690.09
2022-09-16T07:55:17.063Z,99763.53
2022-09-16T07:57:46.650Z,99816.63
2022-09-16T08:00:16.284Z,99843.75
2022-09-16T08:02:45.820Z,99853.31
2022-09-16T08:05:16.255Z,99872.59
2022-09-16T08:07:44.092Z,99903.69
2022-09-16T08:10:12.092Z,99970.16
2022-09-16T08:12:40.040Z,99956.22
2022-09-16T08:15:11.297Z,99985.94
2022-09-16T08:17:39.363Z,100006.91
2022-09-16T08:20:08.186Z,100035.75
2022-09-16T08:22:36.353Z,100067.81
2022-09-16T08:25:04.622Z,100115.81
2022-09-16T08:27:36.121Z,100166.63
2022-09-16T08:30:05.714Z,100186.63
2022-09-16T08:32:34.946Z,100193.66
2022-09-16T08:35:04.305Z,100191.13
2022-09-16T08:37:32.212Z,100184.94
2022-09-16T08:40:00.350Z,100183.25
2022-09-16T08:42:39.563Z,100172.53
2022-09-16T08:45:20.545Z,100169.16
2022-09-16T08:48:08.154Z,100152.56
2022-09-16T08:50:41.211Z,100152.56
2022-09-16T08:53:17.314Z,100188.31
2022-09-16T08:55:48.912Z,100294.78
2022-09-16T08:58:22.577Z,100297.47
2022-09-16T09:00:56.035Z,100345.81
2022-09-16T09:03:37.857Z,100403.31
2022-09-16T09:06:15.787Z,100452.09
2022-09-16T09:08:55.100Z,100552.97
2022-09-16T09:11:30.355Z,100563.41
2022-09-16T09:14:16.456Z,100570.31
2022-09-16T09:16:53.929Z,100598.25
2022-09-16T09:19:39.191Z,100564.97
2022-09-16T09:22:21.392Z,100553.81
2022-09-16T09:25:21.980Z,100527.44
2022-09-16T09:27:58.481Z,100556.38
2022-09-16T09:30:29.235Z,100558.91
2022-09-16T09:33:41.312Z,100561.44
2022-09-16T09:36:39.335Z,100591.06
2022-09-16T09:39:30.422Z,100580.63
2022-09-16T09:42:07.578Z,100592.91
2022-09-16T09:44:49.382Z,100635.81
2022-09-16T09:47:23.541Z,100605.31
2022-09-16T09:49:55.119Z,100619.31
2022-09-16T09:52:29.953Z,100691.00
2022-09-16T09:55:07.446Z,100752.16
2022-09-16T09:57:42.520Z,100880.03
2022-09-16T10:00:29.910Z,100799.75
2022-09-16T10:03:05.939Z,100835.22
2022-09-16T10:05:34.044Z,101347.75
2022-09-16T10:08:10.846Z,101707.88
2022-09-16T10:10:51.143Z,102278.69
2022-09-16T10:13:19.986Z,102370.69
2022-09-16T10:15:53.235Z,102300.78
2022-09-16T10:18:26.968Z,102310.59
2022-09-16T10:21:03.262Z,102289.50
2022-09-16T10:23:33.269Z,102425.44
2022-09-16T10:26:19.522Z,102699.28
2022-09-16T10:28:58.880Z,103138.22
2022-09-16T10:31:33.574Z,103104.50
2022-09-16T10:34:04.307Z,103100.06
2022-09-16T10:36:37.811Z,102904.94
2022-09-16T10:39:07.296Z,102781.38
2022-09-16T10:41:42.131Z,102684.03
2022-09-16T10:44:17.633Z,102471.56
2022-09-16T10:46:53.022Z,102252.22
2022-09-16T10:49:27.168Z,102228.91
2022-09-16T10:51:55.128Z,102160.16
2022-09-16T10:54:29.563Z,102257.09
2022-09-16T10:56:57.420Z,102107.78
2022-09-16T10:59:27.741Z,101918.13
2022-09-16T11:02:14.977Z,101730.31
2022-09-16T11:05:05.077Z,101522.59
2022-09-16T11:07:43.288Z,101386.78
2022-09-16T11:10:23.414Z,101121.78
2022-09-16T11:13:28.452Z,100782.38
2022-09-16T11:16:10.907Z,100557.88
2022-09-16T11:18:52.930Z,100295.31
2022-09-16T11:21:37.314Z,100128.56
2022-09-16T11:24:21.235Z,99990.81
2022-09-16T11:26:59.686Z,99864.06
2022-09-16T11:30:02.205Z,99794.63
2022-09-16T11:32:42.226Z,99741.91
2022-09-16T11:35:35.127Z,99737.41
2022-09-16T11:38:13.737Z,99740.09
2022-09-16T11:40:48.589Z,99768.88
2022-09-16T11:43:38.254Z,99777.75
2022-09-16T11:46:16.221Z,99829.72
2022-09-16T11:48:59.644Z,99927.63
2022-09-16T11:51:40.446Z,100061.00
2022-09-16T11:56:57.646Z,100506.22
2022-09-16T11:59:42.925Z,100676.72
2022-09-16T12:02:18.951Z,100654.28
2022-09-16T12:04:52.174Z,100542.09
2022-09-16T12:07:27.584Z,100475.63
2022-09-16T12:10:01.094Z,100306.31
2022-09-16T12:12:40.856Z,100196.28
2022-09-16T12:15:22.477Z,100100.66
2022-09-16T12:17:57.206Z,100062.06
2022-09-16T12:20:30.970Z,100071.78
2022-09-16T12:23:06.766Z,99993.72
2022-09-16T12:25:45.485Z,99961.06
2022-09-16T12:28:21.622Z,99911.28
2022-09-16T12:31:02.500Z,99855.03
2022-09-16T12:33:36.987Z,99795.72
2022-09-16T12:36:08.306Z,99811.69
2022-09-16T12:38:37.024Z,99810.84
2022-09-16T12:41:27.985Z,99802.44
2022-09-16T12:44:35.899Z,99810.84
2022-09-16T12:47:23.919Z,99825.75
2022-09-16T12:50:21.540Z,99802.16
2022-09-16T12:53:12.962Z,99808.19
2022-09-16T12:56:06.762Z,99750.53
2022-09-16T12:59:00.142Z,99766.31
2022-09-16T13:01:33.940Z,99812.38
2022-09-16T13:04:11.973Z,99884.00
2022-09-16T13:06:58.434Z,99950.28
2022-09-16T13:09:34.829Z,100088.53
2022-09-16T13:15:05.332Z,100363.34
2022-09-16T13:17:39.642Z,100490.00
2022-09-16T13:20:17.007Z,100536.72
2022-09-16T13:22:47.578Z,100612.63
2022-09-16T13:25:24.591Z,100645.97
2022-09-16T13:28:01.762Z,100568.88
2022-09-16T13:30:36.206Z,100479.41
2022-09-16T13:33:30.905Z,100355.59
2022-09-16T13:36:31.272Z,100308.09
2022-09-16T13:39:01.916Z,100311.63
2022-09-16T13:41:33.777Z,100427.81
2022-09-16T13:44:02.702Z,100491.53
2022-09-16T13:46:36.005Z,100562.66
2022-09-16T13:49:17.993Z,100493.53
2022-09-16T13:51:49.287Z,100336.13
2022-09-16T13:54:43.196Z,100201.44
2022-09-16T13:57:31.080Z,100085.41
2022-09-16T14:00:17.255Z,100060.09
2022-09-16T14:03:08.834Z,99996.63
2022-09-16T14:05:48.146Z,100125.41
2022-09-16T14:08:28.122Z,100448.13
2022-09-16T14:11:02.980Z,101100.28
2022-09-16T14:13:39.643Z,101799.06
2022-09-16T14:16:18.877Z,102265.25
2022-09-16T14:18:55.816Z,102111.56
2022-09-16T14:21:25.422Z,102017.78
2022-09-16T14:26:27.660Z,102472.97
2022-09-16T14:29:03.566Z,102331.63
2022-09-16T14:31:33.971Z,102034.69
2022-09-16T14:34:04.541Z,101566.78
2022-09-16T14:36:35.193Z,101264.22
2022-09-16T14:39:12.817Z,101188.06
2022-09-16T14:41:44.879Z,101043.69
2022-09-16T14:44:21.204Z,100903.13
2022-09-16T14:46:51.505Z,100740.41
2022-09-16T14:49:20.543Z,100558.16
2022-09-16T14:51:52.305Z,100392.69
2022-09-16T14:54:23.260Z,100281.75
2022-09-16T14:56:59.260Z,100243.69
2022-09-16T14:59:31.477Z,100342.88
2022-09-16T15:02:05.044Z,100337.53
2022-09-16T15:04:36.178Z,100317.38
2022-09-16T15:07:12.455Z,100218.59
2022-09-16T15:09:47.072Z,100116.53
2022-09-16T15:12:21.380Z,100055.56
2022-09-16T15:14:49.587Z,100064.84
2022-09-16T15:17:20.622Z,100075.25
2022-09-16T15:19:53.720Z,100124.13
2022-09-16T15:22:22.231Z,100093.53
2022-09-16T15:24:54.786Z,100027.56
2022-09-16T15:27:24.583Z,99906.16
2022-09-16T15:29:59.523Z,99848.50
2022-09-16T15:32:31.630Z,99788.31
2022-09-16T15:35:22.829Z,99728.19
2022-09-16T15:37:51.113Z,99626.81
2022-09-16T15:40:25.012Z,99596.56
2022-09-16T15:43:05.811Z,99542.84
2022-09-16T15:45:34.306Z,99493.47
2022-09-16T15:48:06.472Z,99422.03
2022-09-16T15:50:42.082Z,99390.63
2022-09-16T15:53:13.962Z,99350.66
2022-09-16T15:55:53.248Z,99308.13
2022-09-16T15:58:33.108Z,99337.47
2022-09-16T16:01:04.517Z,99282.09
2022-09-16T16:03:37.533Z,99241.03
2022-09-16T16:06:05.972Z,99205.22
2022-09-16T16:08:47.219Z,99222.78
2022-09-16T16:11:18.399Z,99213.59
2022-09-16T16:13:46.801Z,99223.63
2022-09-16T16:16:16.983Z,99188.06
2022-09-16T16:18:46.936Z,99137.97
2022-09-16T16:21:16.676Z,99162.19
2022-09-16T16:23:44.941Z,99105.56
2022-09-16T16:26:13.043Z,99081.53
2022-09-16T16:28:42.893Z,99044.78
2022-09-16T16:31:16.202Z,99059.00
2022-09-16T16:33:46.620Z,99012.56
2022-09-16T16:36:15.860Z,99004.13
2022-09-16T16:38:43.932Z,98972.72
2022-09-16T16:41:12.579Z,98980.56
2022-09-16T16:43:41.891Z,98964.22
2022-09-16T16:46:09.858Z,98949.56
2022-09-16T16:48:39.576Z,98960.56
2022-09-16T16:51:09.984Z,98951.22
2022-09-16T16:53:38.312Z,98922.72
2022-09-16T16:56:11.357Z,98915.72
2022-09-16T16:58:46.118Z,98896.19
2022-09-16T17:01:16.500Z,98844.84
2022-09-16T17:03:46.386Z,98840.34
2022-09-16T17:06:14.883Z,98816.84
2022-09-16T17:08:42.914Z,98802.19
2022-09-16T17:11:12.679Z,98758.88
2022-09-16T17:13:43.749Z,98755.53
2022-09-16T17:16:15.146Z,98726.84
2022-09-16T17:18:44.260Z,98694.84
2022-09-16T17:21:15.941Z,98678.69
2022-09-16T17:23:44.489Z,98677.53
2022-09-16T17:26:13.170Z,98681.84
2022-09-16T17:28:42.320Z,98682.50
2022-09-16T17:31:12.961Z,98696.50
2022-09-16T17:33:40.855Z,98721.00
2022-09-16T17:36:10.360Z,98726.69
2022-09-16T17:38:38.388Z,98748.50
2022-09-16T17:41:09.621Z,98739.84
2022-09-16T17:43:38.731Z,98744.16
2022-09-16T17:46:09.398Z,98732.00
2022-09-16T17:48:38.875Z,98730.50
2022-09-16T17:51:07.262Z,98733.84
2022-09-16T17:53:36.101Z,98733.84
2022-09-16T17:56:05.813Z,98726.19
2022-09-16T17:58:34.214Z,98699.34
2022-09-16T18:01:07.616Z,98652.88
2022-09-16T18:03:36.000Z,98648.22
2022-09-16T18:06:07.507Z,98632.88
2022-09-16T18:08:36.080Z,98558.31
2022-09-16T18:11:05.502Z,98536.53
2022-09-16T18:13:34.179Z,98499.91
2022-09-16T18:16:07.084Z,98448.19
2022-09-16T18:18:37.129Z,98425.22
2022-09-16T18:21:07.683Z,98388.97
2022-09-16T18:23:36.104Z,98364.03
2022-09-16T18:26:06.681Z,98340.44
2022-09-16T18:28:58.280Z,98370.00
2022-09-16T18:31:25.271Z,98326.47
2022-09-16T18:33:54.297Z,98313.19
2022-09-16T18:36:25.558Z,98323.81
2022-09-16T18:38:55.072Z,98267.47
2022-09-16T18:41:24.849Z,98254.34
2022-09-16T18:43:55.723Z,98193.41
2022-09-16T18:46:26.650Z,98178.63
2022-09-16T18:48:55.835Z,98154.00
2022-09-16T18:51:26.698Z,98200.03
2022-09-16T18:53:57.859Z,98151.03
2022-09-16T18:56:27.062Z,98176.78
2022-09-16T18:59:19.959Z,98158.50
2022-09-16T19:01:48.636Z,98112.19
2022-09-16T19:04:18.792Z,98091.94
2022-09-16T19:06:50.472Z,98076.63
2022-09-16T19:09:22.705Z,98068.34
2022-09-16T19:11:54.589Z,98035.81
2022-09-16T19:14:24.980Z,98044.59
2022-09-16T19:16:53.870Z,98044.09
2022-09-16T19:19:22.930Z,98060.03
2022-09-16T19:21:53.102Z,98071.31
2022-09-16T19:24:23.014Z,98079.97
2022-09-16T19:26:53.955Z,98105.88
2022-09-16T19:29:22.362Z,98145.22
2022-09-16T19:31:52.751Z,98154.69
2022-09-16T19:34:21.342Z,98157.16
2022-09-16T19:36:49.300Z,98156.69
2022-09-16T19:39:19.211Z,98182.41
2022-09-16T19:41:47.079Z,98187.91
2022-09-16T19:44:17.121Z,98185.59
2022-09-16T19:46:47.076Z,98176.97
2022-09-16T19:49:19.488Z,98171.63
2022-09-16T19:51:48.310Z,98156.16
2022-09-16T19:54:18.391Z,98119.31
2022-09-16T19:56:50.317Z,98132.75
2022-09-16T19:59:19.443Z,98144.06
2022-09-16T20:01:48.114Z,98153.03
2022-09-16T20:04:19.519Z,98134.09
2022-09-16T20:06:48.060Z,98143.41
2022-09-16T20:09:16.871Z,98145.06
2022-09-16T20:11:47.691Z,98149.38
2022-09-16T20:14:18.981Z,98156.34
2022-09-16T20:16:47.101Z,98139.75
2022-09-16T20:19:17.042Z,98160.00
2022-09-16T20:21:45.389Z,98118.66
2022-09-16T20:24:18.040Z,98126.31
2022-09-16T20:26:48.244Z,98127.78
2022-09-16T20:29:17.326Z,98121.81
2022-09-16T20:31:46.056Z,98132.44
2022-09-16T20:34:16.618Z,98114.84
2022-09-16T20:36:45.890Z,98106.38
2022-09-16T20:39:14.371Z,98146.72
2022-09-16T20:41:43.539Z,98157.34
2022-09-16T20:44:14.815Z,98162.47
2022-09-16T20:46:42.694Z,98130.44
2022-09-16T20:49:16.048Z,98114.19
2022-09-16T20:51:44.501Z,98103.72
2022-09-16T20:54:14.153Z,98111.84
2022-09-16T20:56:44.799Z,98095.75
2022-09-16T20:59:16.197Z,98080.63
2022-09-16T21:01:44.667Z,98127.47
2022-09-16T21:04:14.671Z,98103.88
2022-09-16T21:06:42.940Z,98086.59
2022-09-16T21:09:12.817Z,98094.56
2022-09-16T21:11:44.465Z,98091.09
2022-09-16T21:14:16.391Z,98048.56
2022-09-16T21:16:45.818Z,98030.84
2022-09-16T21:19:15.062Z,98080.81
2022-09-16T21:21:45.919Z,98053.06
2022-09-16T21:24:14.216Z,98045.25
2022-09-16T21:26:44.111Z,98025.03
2022-09-16T21:29:15.899Z,98031.66
2022-09-16T21:31:44.374Z,98034.97
2022-09-16T21:34:14.036Z,98067.00
2022-09-16T21:36:44.608Z,98087.59
2022-09-16T21:39:13.384Z,98068.66
2022-09-16T21:41:41.659Z,98073.97
2022-09-16T21:44:09.897Z,98072.97
2022-09-16T21:46:43.083Z,98065.34
2022-09-16T21:49:21.070Z,98077.44
2022-09-16T21:51:49.564Z,98123.81
2022-09-16T21:54:20.186Z,98148.03
2022-09-16T21:56:49.233Z,98091.25
2022-09-16T21:59:19.481Z,98092.91
2022-09-16T22:01:49.924Z,98109.34
2022-09-16T22:04:20.147Z,98122.16
2022-09-16T22:06:49.764Z,98162.00
2022-09-16T22:09:17.772Z,98151.69
2022-09-16T22:11:45.659Z,98112.00
2022-09-16T22:14:13.642Z,98085.28
2022-09-16T22:16:41.968Z,98077.63
2022-09-16T22:19:13.020Z,98073.97
2022-09-16T22:21:42.499Z,98054.56
2022-09-16T22:24:11.538Z,98056.22
2022-09-16T22:26:39.888Z,98041.44
2022-09-16T22:29:09.613Z,98061.19
2022-09-16T22:31:39.586Z,98099.88
2022-09-16T22:34:08.115Z,98098.22
2022-09-16T22:36:38.441Z,98085.28
2022-09-16T22:39:11.214Z,98044.94
2022-09-16T22:41:39.066Z,98021.72
2022-09-16T22:44:07.278Z,97998.31
2022-09-16T22:46:42.939Z,97995.00
2022-09-16T22:49:11.752Z,97975.78
2022-09-16T22:51:41.561Z,97958.50
2022-09-16T22:54:09.974Z,97937.28
2022-09-16T22:56:37.888Z,97917.38
2022-09-16T22:59:08.259Z,97889.88
2022-09-16T23:01:38.827Z,97896.81
2022-09-16T23:04:08.837Z,97854.03
2022-09-16T23:06:38.962Z,97882.06
2022-09-16T23:09:09.725Z,97878.44
2022-09-16T23:11:37.724Z,97899.31
2022-09-16T23:14:06.472Z,97909.41
2022-09-16T23:16:36.324Z,97926.81
2022-09-16T23:19:06.939Z,97934.63
2022-09-16T23:21:35.618Z,97952.69
2022-09-16T23:24:05.388Z,97999.16
2022-09-16T23:26:38.939Z,97993.19
2022-09-16T23:29:08.636Z,97996.00
2022-09-16T23:31:40.476Z,97988.69
2022-09-16T23:34:09.200Z,98037.13
2022-09-16T23:36:37.991Z,98043.44
2022-09-16T23:39:07.126Z,98065.66
2022-09-16T23:41:38.468Z,98038.78
2022-09-16T23:44:07.143Z,98053.41
2022-09-16T23:46:35.285Z,98090.91
2022-09-16T23:49:03.590Z,98079.63
2022-09-16T23:51:33.062Z,98062.34
2022-09-16T23:54:01.992Z,98070.81
2022-09-16T23:56:30.125Z,98084.94
2022-09-16T23:59:01.709Z,98080.28
